Terminal Aerodrome Forecast
Issued by NWS

Home | Current Version | Previous Version | Text Only | Print | Product List | Glossary On
Versions: 1 2 3 4 5 6 7 8 9 10 11 12 13
000
FTUS43 KIND 010520
TAFLAF
TAF
KLAF 010520Z 0106/0206 VRB04KT P6SM BKN100
     FM011200 15005KT P6SM VCTS SCT060CB BKN200
     FM011500 19005KT P6SM -SHRA BKN080 PROB30 0115/0121 4SM TSRA
      OVC060CB
     FM012100 26006KT P6SM BKN060 PROB30 0122/0124 4SM -TSRA
      OVC040CB
     FM020100 VRB03KT P6SM SCT060 BKN200
     FM020300 29003KT P6SM SCT060 BKN200
      AMD LTD TO CLD WIND AND VIS TIL 011300=

USA.gov is the U.S. government's official web portal to all federal, state and local government web resources and services.